createdAt,value
2022-09-07T00:01:09.609Z,96869.22
2022-09-07T00:03:36.390Z,96867.63
2022-09-07T00:06:08.639Z,96872.72
2022-09-07T00:08:35.397Z,96870.84
2022-09-07T00:11:05.148Z,96886.41
2022-09-07T00:13:34.411Z,96907.50
2022-09-07T00:16:06.129Z,96938.63
2022-09-07T00:18:32.891Z,96971.31
2022-09-07T00:21:08.503Z,96989.91
2022-09-07T00:23:36.889Z,96988.44
2022-09-07T00:26:05.894Z,97003.06
2022-09-07T00:28:33.083Z,96993.25
2022-09-07T00:30:59.869Z,97017.22
2022-09-07T00:33:26.891Z,97033.84
2022-09-07T00:35:53.727Z,97051.22
2022-09-07T00:38:20.317Z,97042.56
2022-09-07T00:40:46.996Z,97055.66
2022-09-07T00:43:17.171Z,97020.25
2022-09-07T00:45:43.756Z,97011.59
2022-09-07T00:48:17.046Z,96998.34
2022-09-07T00:50:47.535Z,96977.53
2022-09-07T00:53:18.531Z,97002.09
2022-09-07T00:55:46.523Z,97004.47
2022-09-07T00:58:13.377Z,96992.44
2022-09-07T01:00:41.204Z,96999.56
2022-09-07T01:03:08.864Z,97005.06
2022-09-07T01:05:42.739Z,97019.06
2022-09-07T01:08:09.875Z,97045.81
2022-09-07T01:10:37.632Z,97047.09
2022-09-07T01:13:04.658Z,97046.91
2022-09-07T01:15:56.462Z,97063.25
2022-09-07T01:19:34.742Z,97064.72
2022-09-07T01:22:13.124Z,97044.94
2022-09-07T01:24:39.742Z,97054.44
2022-09-07T01:27:26.536Z,97046.09
2022-09-07T01:29:59.509Z,97039.25
2022-09-07T01:33:00.000Z,97028.75
2022-09-07T01:35:50.392Z,97013.13
2022-09-07T01:38:38.860Z,97012.31
2022-09-07T01:41:11.696Z,97013.72
2022-09-07T01:43:42.740Z,97000.50
2022-09-07T01:46:25.558Z,97001.31
2022-09-07T01:48:55.127Z,97012.19
2022-09-07T01:51:23.439Z,96988.69
2022-09-07T01:54:24.521Z,97001.91
2022-09-07T01:56:53.715Z,96987.06
2022-09-07T01:59:24.972Z,96979.97
2022-09-07T02:01:56.046Z,96988.09
2022-09-07T02:04:25.913Z,96976.25
2022-09-07T02:07:06.370Z,96962.50
2022-09-07T02:09:37.547Z,96949.81
2022-09-07T02:12:27.472Z,96946.41
2022-09-07T02:14:59.752Z,96925.50
2022-09-07T02:17:31.803Z,96916.28
2022-09-07T02:20:04.740Z,96905.47
2022-09-07T02:22:34.811Z,96906.34
2022-09-07T02:25:03.988Z,96891.78
2022-09-07T02:27:36.260Z,96896.41
2022-09-07T02:30:03.042Z,96895.84
2022-09-07T02:32:29.605Z,96882.53
2022-09-07T02:34:56.234Z,96873.06
2022-09-07T02:37:23.212Z,96868.78
2022-09-07T02:39:49.988Z,96871.44
2022-09-07T02:42:16.602Z,96872.94
2022-09-07T02:44:45.622Z,96878.03
2022-09-07T02:47:49.779Z,96875.00
2022-09-07T02:50:30.064Z,96868.66
2022-09-07T02:53:41.367Z,96854.88
2022-09-07T02:56:35.955Z,96837.06
2022-09-07T02:59:21.232Z,96838.47
2022-09-07T03:01:48.053Z,96836.41
2022-09-07T03:04:33.385Z,96834.34
2022-09-07T03:07:14.053Z,96824.50
2022-09-07T03:09:44.195Z,96824.50
2022-09-07T03:12:11.113Z,96817.63
2022-09-07T03:14:40.461Z,96811.97
2022-09-07T03:17:07.520Z,96806.41
2022-09-07T03:19:34.113Z,96812.53
2022-09-07T03:22:00.768Z,96804.31
2022-09-07T03:24:27.377Z,96796.28
2022-09-07T03:26:53.958Z,96801.94
2022-09-07T03:29:20.552Z,96797.63
2022-09-07T03:31:47.159Z,96800.91
2022-09-07T03:34:13.813Z,96804.22
2022-09-07T03:36:40.429Z,96789.44
2022-09-07T03:39:07.138Z,96803.09
2022-09-07T03:41:34.441Z,96797.19
2022-09-07T03:44:05.112Z,96788.81
2022-09-07T03:46:32.630Z,96797.81
2022-09-07T03:48:59.434Z,96808.47
2022-09-07T03:51:26.101Z,96800.34
2022-09-07T03:53:52.653Z,96803.88
2022-09-07T03:56:21.424Z,96807.09
2022-09-07T03:58:48.679Z,96796.50
2022-09-07T04:01:20.788Z,96794.88
2022-09-07T04:03:48.098Z,96802.72
2022-09-07T04:06:15.699Z,96804.22
2022-09-07T04:08:43.248Z,96793.28
2022-09-07T04:11:13.168Z,96805.31
2022-09-07T04:13:40.088Z,96801.88
2022-09-07T04:16:11.669Z,96801.53
2022-09-07T04:18:38.325Z,96801.44
2022-09-07T04:21:05.032Z,96804.75
2022-09-07T04:23:31.739Z,96794.56
2022-09-07T04:25:58.400Z,96790.78
2022-09-07T04:28:25.262Z,96793.00
2022-09-07T04:30:51.913Z,96791.38
2022-09-07T04:33:18.890Z,96794.69
2022-09-07T04:35:45.460Z,96797.56
2022-09-07T04:38:14.891Z,96791.44
2022-09-07T04:40:41.733Z,96793.94
2022-09-07T04:43:09.636Z,96793.41
2022-09-07T04:45:37.258Z,96786.69
2022-09-07T04:48:04.449Z,96784.25
2022-09-07T04:50:31.497Z,96792.00
2022-09-07T04:52:58.115Z,96785.50
2022-09-07T04:55:24.739Z,96789.19
2022-09-07T04:57:51.341Z,96785.75
2022-09-07T05:00:18.115Z,96785.63
2022-09-07T05:02:44.756Z,96782.38
2022-09-07T05:05:11.506Z,96788.72
2022-09-07T05:07:38.093Z,96782.00
2022-09-07T05:10:05.118Z,96783.63
2022-09-07T05:12:31.692Z,96786.88
2022-09-07T05:14:58.400Z,96791.72
2022-09-07T05:17:24.979Z,96790.69
2022-09-07T05:19:51.534Z,96798.63
2022-09-07T05:22:19.331Z,96806.41
2022-09-07T05:24:47.635Z,96805.16
2022-09-07T05:27:14.320Z,96805.28
2022-09-07T05:32:27.517Z,96817.66
2022-09-07T05:34:54.115Z,96817.25
2022-09-07T05:37:20.745Z,96827.88
2022-09-07T05:39:48.254Z,96818.44
2022-09-07T05:42:15.012Z,96835.91
2022-09-07T05:47:13.310Z,96834.66
2022-09-07T05:49:40.075Z,96831.69
2022-09-07T05:52:06.909Z,96832.72
2022-09-07T05:54:33.656Z,96838.00
2022-09-07T05:57:00.269Z,96838.75
2022-09-07T05:59:26.874Z,96838.16
2022-09-07T06:01:53.532Z,96838.56
2022-09-07T06:04:20.220Z,96835.31
2022-09-07T06:06:59.289Z,96839.66
2022-09-07T06:09:33.660Z,96840.88
2022-09-07T06:12:00.272Z,96842.16
2022-09-07T06:14:26.864Z,96831.00
2022-09-07T06:16:53.768Z,96833.19
2022-09-07T06:19:20.444Z,96836.16
2022-09-07T06:21:47.014Z,96832.22
2022-09-07T06:24:13.822Z,96838.63
2022-09-07T06:26:40.416Z,96844.09
2022-09-07T06:29:07.138Z,96853.72
2022-09-07T06:31:33.927Z,96852.09
2022-09-07T06:34:01.049Z,96855.53
2022-09-07T06:36:28.240Z,96863.44
2022-09-07T06:38:56.207Z,96866.78
2022-09-07T06:44:17.307Z,96866.19
2022-09-07T06:49:30.469Z,96869.13
2022-09-07T06:51:57.067Z,96862.19
2022-09-07T06:57:10.263Z,96872.25
2022-09-07T06:59:37.582Z,96869.16
2022-09-07T07:02:05.299Z,96867.59
2022-09-07T07:04:33.300Z,96876.94
2022-09-07T07:07:03.064Z,96870.75
2022-09-07T07:09:29.641Z,96876.91
2022-09-07T07:11:56.187Z,96880.81
2022-09-07T07:14:22.757Z,96871.56
2022-09-07T07:16:49.909Z,96884.97
2022-09-07T07:19:16.728Z,96876.41
2022-09-07T07:22:10.381Z,96874.13
2022-09-07T07:24:30.645Z,96878.50
2022-09-07T07:26:57.562Z,96872.63
2022-09-07T07:29:27.982Z,96880.16
2022-09-07T07:31:54.964Z,96883.91
2022-09-07T07:34:21.647Z,96885.00
2022-09-07T07:36:48.238Z,96890.66
2022-09-07T07:42:03.200Z,96892.72
2022-09-07T07:44:32.056Z,96885.97
2022-09-07T07:46:58.683Z,96891.50
2022-09-07T07:49:25.272Z,96893.19
2022-09-07T07:54:41.583Z,96900.38
2022-09-07T07:57:08.357Z,96906.19
2022-09-07T07:59:35.425Z,96902.00
2022-09-07T08:02:05.048Z,96896.50
2022-09-07T08:04:35.242Z,96902.75
2022-09-07T08:07:08.683Z,96916.81
2022-09-07T08:09:37.275Z,96922.69
2022-09-07T08:12:04.108Z,96918.03
2022-09-07T08:14:30.654Z,96915.44
2022-09-07T08:16:57.184Z,96926.69
2022-09-07T08:19:23.701Z,96922.94
2022-09-07T08:21:50.239Z,96925.66
2022-09-07T08:24:16.798Z,96920.03
2022-09-07T08:26:43.409Z,96922.53
2022-09-07T08:29:09.918Z,96923.59
2022-09-07T08:31:36.616Z,96927.94
2022-09-07T08:34:03.231Z,96923.19
2022-09-07T08:36:31.826Z,96930.97
2022-09-07T08:38:58.497Z,96934.75
2022-09-07T08:41:59.561Z,96939.91
2022-09-07T08:44:28.761Z,96929.38
2022-09-07T08:47:23.378Z,96942.06
2022-09-07T08:49:56.320Z,96942.06
2022-09-07T08:52:25.701Z,96936.41
2022-09-07T08:55:04.802Z,96939.41
2022-09-07T08:57:33.562Z,96940.16
2022-09-07T09:00:07.815Z,96929.06
2022-09-07T09:02:40.140Z,96934.50
2022-09-07T09:05:35.015Z,96940.19
2022-09-07T09:08:14.325Z,96925.88
2022-09-07T09:10:53.482Z,96938.81
2022-09-07T09:13:27.638Z,96935.00
2022-09-07T09:16:03.266Z,96936.56
2022-09-07T09:18:44.755Z,96940.22
2022-09-07T09:21:17.030Z,96940.56
2022-09-07T09:23:45.775Z,96934.72
2022-09-07T09:26:12.335Z,96938.31
2022-09-07T09:28:39.448Z,96934.25
2022-09-07T09:31:06.861Z,96935.00
2022-09-07T09:33:33.448Z,96930.81
2022-09-07T09:36:01.125Z,96943.31
2022-09-07T09:38:31.802Z,96942.59
2022-09-07T09:40:59.733Z,96945.88
2022-09-07T09:43:33.007Z,96943.47
2022-09-07T09:46:17.200Z,96937.66
2022-09-07T09:48:50.505Z,96941.94
2022-09-07T09:54:23.117Z,96933.41
2022-09-07T09:56:50.988Z,96932.41
2022-09-07T10:05:37.948Z,96940.34
2022-09-07T10:08:15.636Z,96928.00
2022-09-07T10:11:00.491Z,96924.22
2022-09-07T10:13:54.840Z,96926.41
2022-09-07T10:16:36.381Z,96913.13
2022-09-07T10:19:03.007Z,96913.59
2022-09-07T10:21:30.917Z,96908.88
2022-09-07T10:24:06.605Z,96903.38
2022-09-07T10:26:37.790Z,96901.31
2022-09-07T10:29:28.691Z,96894.78
2022-09-07T10:32:26.244Z,96912.03
2022-09-07T10:35:38.364Z,96902.41
2022-09-07T10:38:15.125Z,96911.97
2022-09-07T10:40:58.926Z,96899.50
2022-09-07T10:43:43.732Z,96897.97
2022-09-07T10:49:06.037Z,96901.28
2022-09-07T10:51:54.028Z,96899.63
2022-09-07T10:54:48.592Z,96898.66
2022-09-07T10:57:48.269Z,96902.06
2022-09-07T11:00:17.784Z,96896.78
2022-09-07T11:06:02.445Z,96898.28
2022-09-07T11:14:20.386Z,96900.41
2022-09-07T11:17:12.641Z,96896.34
2022-09-07T11:19:45.250Z,96893.34
2022-09-07T11:22:32.421Z,96896.00
2022-09-07T11:27:56.343Z,96894.78
2022-09-07T11:30:27.363Z,96894.59
2022-09-07T11:33:05.386Z,96907.13
2022-09-07T11:35:51.826Z,96908.28
2022-09-07T11:38:31.134Z,96910.44
2022-09-07T11:41:16.028Z,96916.03
2022-09-07T11:43:53.367Z,96909.94
2022-09-07T11:46:26.878Z,96882.63
2022-09-07T11:48:55.994Z,96878.81
2022-09-07T11:51:38.648Z,96885.97
2022-09-07T11:54:35.666Z,96874.84
2022-09-07T11:57:14.321Z,96873.81
2022-09-07T11:59:58.750Z,96869.00
2022-09-07T12:03:05.482Z,96854.25
2022-09-07T12:05:43.786Z,96855.22
2022-09-07T12:08:19.130Z,96857.63
2022-09-07T12:11:09.601Z,96854.44
2022-09-07T12:13:53.238Z,96854.41
2022-09-07T12:16:28.847Z,96862.31
2022-09-07T12:19:01.185Z,96854.63
2022-09-07T12:21:38.105Z,96848.91
2022-09-07T12:24:05.010Z,96845.69
2022-09-07T12:26:35.424Z,96845.72
2022-09-07T12:29:01.985Z,96845.66
2022-09-07T12:31:57.649Z,96852.84
2022-09-07T12:34:31.340Z,96848.34
2022-09-07T12:37:26.723Z,96846.13
2022-09-07T12:40:30.066Z,96857.50
2022-09-07T12:43:15.044Z,96859.78
2022-09-07T12:45:44.527Z,96844.03
2022-09-07T12:48:32.142Z,96851.09
2022-09-07T12:50:59.010Z,96848.72
2022-09-07T12:53:33.128Z,96857.47
2022-09-07T12:56:24.681Z,96851.75
2022-09-07T12:59:19.779Z,96859.22
2022-09-07T13:02:14.128Z,96852.25
2022-09-07T13:05:15.500Z,96845.75
2022-09-07T13:08:08.031Z,96845.66
2022-09-07T13:10:37.440Z,96828.28
2022-09-07T13:13:16.118Z,96829.94
2022-09-07T13:15:45.865Z,96831.53
2022-09-07T13:18:35.718Z,96828.72
2022-09-07T13:21:08.349Z,96827.47
2022-09-07T13:23:35.832Z,96830.94
2022-09-07T13:26:03.461Z,96831.44
2022-09-07T13:28:51.369Z,96834.91
2022-09-07T13:31:26.845Z,96838.00
2022-09-07T13:33:53.992Z,96839.22
2022-09-07T13:36:25.755Z,96844.41
2022-09-07T13:38:53.564Z,96836.25
2022-09-07T13:41:27.547Z,96831.94
2022-09-07T13:44:00.423Z,96834.59
2022-09-07T13:46:51.152Z,96831.28
2022-09-07T13:49:55.075Z,96818.69
2022-09-07T13:52:51.900Z,96821.00
2022-09-07T13:55:27.537Z,96818.06
2022-09-07T13:57:58.559Z,96824.56
2022-09-07T14:00:25.143Z,96824.75
2022-09-07T14:02:56.799Z,96824.56
2022-09-07T14:05:23.856Z,96826.72
2022-09-07T14:07:50.383Z,96819.97
2022-09-07T14:10:25.055Z,96816.88
2022-09-07T14:12:54.030Z,96822.94
2022-09-07T14:15:32.404Z,96817.31
2022-09-07T14:18:10.998Z,96824.25
2022-09-07T14:20:44.161Z,96826.00
2022-09-07T14:23:27.070Z,96824.78
2022-09-07T14:26:17.267Z,96821.59
2022-09-07T14:28:46.058Z,96814.91
2022-09-07T14:31:15.382Z,96823.38
2022-09-07T14:33:58.959Z,96822.44
2022-09-07T14:36:44.623Z,96822.13
2022-09-07T14:39:12.992Z,96821.28
2022-09-07T14:41:41.437Z,96834.97
2022-09-07T14:44:36.460Z,96820.34
2022-09-07T14:47:18.915Z,96824.56
2022-09-07T14:49:51.958Z,96823.84
2022-09-07T14:52:31.289Z,96824.56
2022-09-07T14:54:57.972Z,96815.00
2022-09-07T14:57:30.653Z,96818.41
2022-09-07T14:59:58.866Z,96807.94
2022-09-07T15:02:37.861Z,96804.19
2022-09-07T15:05:25.489Z,96809.22
2022-09-07T15:07:53.398Z,96795.31
2022-09-07T15:10:23.713Z,96794.91
2022-09-07T15:12:55.120Z,96798.78
2022-09-07T15:15:27.043Z,96804.03
2022-09-07T15:17:55.475Z,96790.50
2022-09-07T15:20:40.247Z,96795.16
2022-09-07T15:23:14.923Z,96802.66
2022-09-07T15:25:45.374Z,96810.63
2022-09-07T15:29:08.115Z,96805.50
2022-09-07T15:34:04.484Z,96794.41
2022-09-07T15:36:31.944Z,96803.53
2022-09-07T15:39:00.115Z,96793.41
2022-09-07T15:41:27.754Z,96799.09
2022-09-07T15:43:54.380Z,96791.88
2022-09-07T15:46:21.179Z,96795.91
2022-09-07T15:48:52.764Z,96791.19
2022-09-07T15:54:08.009Z,96790.63
2022-09-07T15:56:38.912Z,96791.97
2022-09-07T15:59:05.833Z,96794.00
2022-09-07T16:04:19.449Z,96793.03
2022-09-07T16:06:48.288Z,96789.00
2022-09-07T16:09:15.482Z,96782.41
2022-09-07T16:11:42.065Z,96785.78
2022-09-07T16:14:11.718Z,96776.78
2022-09-07T16:19:24.824Z,96772.22
2022-09-07T16:21:51.579Z,96771.59
2022-09-07T16:24:18.343Z,96765.72
2022-09-07T16:26:44.988Z,96760.41
2022-09-07T16:29:11.560Z,96756.22
2022-09-07T16:31:38.424Z,96761.72
2022-09-07T16:34:05.510Z,96760.19
2022-09-07T16:36:32.094Z,96760.00
2022-09-07T16:39:00.314Z,96766.25
2022-09-07T16:41:31.025Z,96761.47
2022-09-07T16:43:58.323Z,96768.31
2022-09-07T16:46:26.983Z,96759.50
2022-09-07T16:48:53.857Z,96756.56
2022-09-07T16:51:22.596Z,96757.13
2022-09-07T16:53:50.885Z,96767.94
2022-09-07T16:56:20.017Z,96769.56
2022-09-07T16:58:52.375Z,96760.44
2022-09-07T17:01:21.557Z,96767.47
2022-09-07T17:03:51.775Z,96781.72
2022-09-07T17:06:20.360Z,96773.94
2022-09-07T17:08:47.220Z,96775.56
2022-09-07T17:11:17.628Z,96768.56
2022-09-07T17:13:44.655Z,96765.63
2022-09-07T17:16:12.855Z,96776.13
2022-09-07T17:21:34.819Z,96779.59
2022-09-07T17:24:04.315Z,96775.84
2022-09-07T17:26:31.945Z,96776.91
2022-09-07T17:29:00.612Z,96771.53
2022-09-07T17:34:19.575Z,96774.72
2022-09-07T17:36:46.346Z,96779.50
2022-09-07T17:39:16.026Z,96771.44
2022-09-07T17:41:44.711Z,96774.38
2022-09-07T17:44:11.314Z,96771.38
2022-09-07T17:46:38.160Z,96768.69
2022-09-07T17:49:07.043Z,96762.66
2022-09-07T17:51:33.708Z,96770.13
2022-09-07T17:54:12.313Z,96761.97
2022-09-07T17:56:40.026Z,96772.03
2022-09-07T18:01:54.367Z,96768.28
2022-09-07T18:04:21.337Z,96759.28
2022-09-07T18:06:48.288Z,96771.06
2022-09-07T18:09:14.941Z,96765.34
2022-09-07T18:11:44.844Z,96768.91
2022-09-07T18:14:13.642Z,96769.53
2022-09-07T18:16:40.396Z,96774.22
2022-09-07T18:19:09.793Z,96778.06
2022-09-07T18:21:37.935Z,96778.97
2022-09-07T18:24:07.578Z,96782.81
2022-09-07T18:26:35.771Z,96783.50
2022-09-07T18:29:04.803Z,96776.47
2022-09-07T18:31:33.426Z,96790.28
2022-09-07T18:34:01.673Z,96787.63
2022-09-07T18:36:29.087Z,96798.94
2022-09-07T18:38:55.755Z,96793.81
2022-09-07T18:41:22.291Z,96797.78
2022-09-07T18:43:49.458Z,96790.34
2022-09-07T18:46:21.134Z,96786.28
2022-09-07T18:48:47.779Z,96799.38
2022-09-07T18:51:15.088Z,96789.19
2022-09-07T18:53:41.771Z,96778.44
2022-09-07T18:56:13.186Z,96778.97
2022-09-07T18:58:40.089Z,96781.25
2022-09-07T19:01:08.854Z,96772.47
2022-09-07T19:03:36.108Z,96774.19
2022-09-07T19:06:05.333Z,96775.03
2022-09-07T19:08:32.942Z,96773.09
2022-09-07T19:11:07.013Z,96765.31
2022-09-07T19:13:34.987Z,96768.88
2022-09-07T19:16:12.685Z,96767.84
2022-09-07T19:18:44.735Z,96762.66
2022-09-07T19:21:16.607Z,96768.38
2022-09-07T19:23:43.379Z,96764.06
2022-09-07T19:26:10.579Z,96770.69
2022-09-07T19:28:37.125Z,96762.03
2022-09-07T19:31:05.757Z,96771.13
2022-09-07T19:33:33.364Z,96766.75
2022-09-07T19:36:06.568Z,96760.13
2022-09-07T19:38:33.480Z,96759.31
2022-09-07T19:41:01.008Z,96753.53
2022-09-07T19:43:31.507Z,96751.22
2022-09-07T19:45:58.184Z,96753.91
2022-09-07T19:48:25.293Z,96750.25
2022-09-07T19:50:51.876Z,96744.31
2022-09-07T19:53:19.012Z,96746.53
2022-09-07T19:55:45.885Z,96747.22
2022-09-07T19:58:12.891Z,96739.94
2022-09-07T20:00:41.674Z,96745.25
2022-09-07T20:03:10.516Z,96736.78
2022-09-07T20:05:38.612Z,96735.97
2022-09-07T20:08:05.293Z,96739.53
2022-09-07T20:10:32.761Z,96731.22
2022-09-07T20:12:59.708Z,96728.00
2022-09-07T20:15:26.537Z,96729.84
2022-09-07T20:17:53.902Z,96720.28
2022-09-07T20:20:21.224Z,96723.03
2022-09-07T20:22:48.065Z,96713.91
2022-09-07T20:25:14.650Z,96709.75
2022-09-07T20:27:41.649Z,96706.84
2022-09-07T20:30:08.602Z,96711.38
2022-09-07T20:32:35.150Z,96712.19
2022-09-07T20:35:01.771Z,96708.84
2022-09-07T20:37:28.363Z,96711.03
2022-09-07T20:39:55.002Z,96703.28
2022-09-07T20:42:21.618Z,96713.13
2022-09-07T20:44:48.141Z,96714.53
2022-09-07T20:47:14.683Z,96709.88
2022-09-07T20:49:41.199Z,96707.06
2022-09-07T20:52:07.746Z,96709.38
2022-09-07T20:54:34.272Z,96712.50
2022-09-07T20:57:03.844Z,96718.28
2022-09-07T20:59:30.750Z,96717.91
2022-09-07T21:01:57.435Z,96722.91
2022-09-07T21:04:26.366Z,96716.66
2022-09-07T21:06:53.063Z,96714.69
2022-09-07T21:09:20.039Z,96711.88
2022-09-07T21:11:49.712Z,96709.56
2022-09-07T21:14:17.830Z,96702.34
2022-09-07T21:16:44.493Z,96704.88
2022-09-07T21:19:11.176Z,96702.91
2022-09-07T21:21:39.867Z,96702.63
2022-09-07T21:24:09.292Z,96700.44
2022-09-07T21:26:35.829Z,96700.56
2022-09-07T21:29:04.954Z,96697.56
2022-09-07T21:31:33.409Z,96698.59
2022-09-07T21:34:01.838Z,96704.25
2022-09-07T21:36:28.752Z,96701.97
2022-09-07T21:38:55.859Z,96698.13
2022-09-07T21:41:23.791Z,96697.09
2022-09-07T21:43:55.385Z,96699.41
2022-09-07T21:46:21.932Z,96697.31
2022-09-07T21:48:48.514Z,96689.97
2022-09-07T21:51:15.457Z,96687.41
2022-09-07T21:53:43.115Z,96681.81
2022-09-07T21:56:12.828Z,96673.34
2022-09-07T21:58:40.100Z,96681.16
2022-09-07T22:01:26.533Z,96671.41
2022-09-07T22:03:59.655Z,96677.13
2022-09-07T22:06:27.880Z,96667.38
2022-09-07T22:08:55.805Z,96672.69
2022-09-07T22:11:23.870Z,96662.50
2022-09-07T22:13:55.547Z,96669.91
2022-09-07T22:16:22.486Z,96651.53
2022-09-07T22:18:49.282Z,96660.31
2022-09-07T22:21:21.467Z,96660.06
2022-09-07T22:23:51.010Z,96657.41
2022-09-07T22:26:19.628Z,96663.78
2022-09-07T22:28:46.667Z,96664.44
2022-09-07T22:31:13.299Z,96663.28
2022-09-07T22:33:40.947Z,96658.38
2022-09-07T22:36:15.893Z,96665.03
2022-09-07T22:38:43.575Z,96656.72
2022-09-07T22:41:15.175Z,96664.91
2022-09-07T22:43:42.676Z,96655.59
2022-09-07T22:46:10.038Z,96661.28
2022-09-07T22:48:36.734Z,96656.63
2022-09-07T22:51:04.228Z,96658.47
2022-09-07T22:53:33.467Z,96664.59
2022-09-07T22:56:01.528Z,96660.09
2022-09-07T22:58:29.099Z,96646.91
2022-09-07T23:01:00.887Z,96647.41
2022-09-07T23:03:32.085Z,96646.53
2022-09-07T23:05:58.800Z,96657.16
2022-09-07T23:08:26.032Z,96648.16
2022-09-07T23:10:53.063Z,96645.28
2022-09-07T23:13:20.068Z,96643.00
2022-09-07T23:15:47.230Z,96643.50
2022-09-07T23:18:18.897Z,96637.16
2022-09-07T23:20:45.420Z,96632.28
2022-09-07T23:23:13.384Z,96633.91
2022-09-07T23:25:41.314Z,96626.53
2022-09-07T23:28:10.717Z,96623.75
2022-09-07T23:30:37.574Z,96627.00
2022-09-07T23:33:04.151Z,96621.53
2022-09-07T23:35:30.705Z,96624.63
2022-09-07T23:37:57.263Z,96615.06
2022-09-07T23:40:24.223Z,96616.69
2022-09-07T23:42:50.883Z,96610.72
2022-09-07T23:45:17.463Z,96599.41
2022-09-07T23:47:44.052Z,96592.50
2022-09-07T23:50:11.097Z,96593.75
2022-09-07T23:52:38.009Z,96597.06
2022-09-07T23:55:05.334Z,96595.00
2022-09-07T23:57:31.900Z,96579.09
2022-09-07T23:59:58.895Z,96570.53
